TimeCDT,TemperatureF,Dew PointF,Humidity,Sea Level PressureIn,VisibilityMPH,Wind Direction,Wind SpeedMPH,Gust SpeedMPH,PrecipitationIn,Events,Conditions,WindDirDegrees,DateUTC
12:55 AM,59.0,51.1,75,30.05,10.0,SE,6.9,-,N/A,,Clear,130,2013-09-14 05:55:00
1:55 AM,57.9,51.1,78,30.04,10.0,ESE,8.1,-,N/A,,Clear,120,2013-09-14 06:55:00
2:55 AM,57.0,51.1,81,30.03,10.0,ESE,4.6,-,N/A,,Clear,120,2013-09-14 07:55:00
3:55 AM,55.9,51.1,84,30.03,10.0,Calm,Calm,-,N/A,,Clear,0,2013-09-14 08:55:00
4:55 AM,55.9,51.1,84,30.03,10.0,Calm,Calm,-,N/A,,Clear,0,2013-09-14 09:55:00
5:55 AM,55.0,51.1,86,30.03,10.0,East,3.5,-,N/A,,Clear,100,2013-09-14 10:55:00
6:55 AM,54.0,50.0,86,30.03,10.0,Calm,Calm,-,N/A,,Clear,0,2013-09-14 11:55:00
7:55 AM,55.0,50.0,83,30.04,10.0,ESE,5.8,-,N/A,,Clear,120,2013-09-14 12:55:00
8:55 AM,62.1,51.1,67,30.04,10.0,ESE,5.8,-,N/A,,Clear,120,2013-09-14 13:55:00
9:55 AM,69.1,50.0,51,30.03,10.0,South,11.5,-,N/A,,Clear,170,2013-09-14 14:55:00
10:55 AM,73.0,50.0,44,30.01,10.0,South,16.1,21.9,N/A,,Clear,170,2013-09-14 15:55:00
11:55 AM,75.0,51.1,43,29.99,10.0,SSE,13.8,23.0,N/A,,Clear,160,2013-09-14 16:55:00
12:55 PM,77.0,52.0,42,29.98,10.0,South,13.8,21.9,N/A,,Partly Cloudy,170,2013-09-14 17:55:00
1:55 PM,81.0,48.9,33,29.94,10.0,South,12.7,19.6,N/A,,Partly Cloudy,170,2013-09-14 18:55:00
2:55 PM,81.0,54.0,39,29.92,10.0,South,16.1,23.0,N/A,,Mostly Cloudy,180,2013-09-14 19:55:00
3:55 PM,81.0,55.9,42,29.89,10.0,SSE,17.3,25.3,N/A,,Partly Cloudy,160,2013-09-14 20:55:00
4:55 PM,81.0,57.9,45,29.87,10.0,South,17.3,23.0,N/A,,Clear,170,2013-09-14 21:55:00
5:55 PM,79.0,59.0,50,29.87,10.0,South,12.7,-,N/A,,Clear,170,2013-09-14 22:55:00
6:55 PM,78.1,60.1,54,29.86,10.0,South,11.5,-,N/A,,Clear,170,2013-09-14 23:55:00
7:55 PM,75.9,61.0,60,29.86,10.0,SSE,10.4,-,N/A,,Clear,160,2013-09-15 00:55:00
8:55 PM,73.0,61.0,66,29.85,10.0,SSE,10.4,-,N/A,,Clear,160,2013-09-15 01:55:00
9:55 PM,75.0,61.0,62,29.85,10.0,SSE,13.8,-,N/A,,Clear,160,2013-09-15 02:55:00
10:55 PM,71.1,61.0,70,29.86,10.0,South,13.8,-,N/A,,Clear,170,2013-09-15 03:55:00
11:55 PM,71.1,61.0,70,29.86,10.0,South,13.8,-,N/A,,Clear,180,2013-09-15 04:55:00